createdAt,value
2019-05-18T00:00:30.173Z,99.90
2019-05-18T00:01:35.141Z,99.90
2019-05-18T00:02:39.563Z,99.90
2019-05-18T00:03:44.565Z,99.90
2019-05-18T00:04:50.333Z,99.90
2019-05-18T00:05:55.481Z,99.90
2019-05-18T00:06:59.843Z,99.90
2019-05-18T00:08:05.166Z,99.90
2019-05-18T00:09:09.582Z,99.90
2019-05-18T00:10:14.906Z,99.90
2019-05-18T00:11:19.251Z,99.90
2019-05-18T00:12:24.349Z,99.90
2019-05-18T00:13:29.720Z,99.90
2019-05-18T00:14:34.659Z,99.90
2019-05-18T00:15:39.109Z,99.90
2019-05-18T00:16:44.121Z,99.90
2019-05-18T00:17:50.338Z,99.90
2019-05-18T00:18:55.451Z,99.90
2019-05-18T00:19:59.802Z,99.90
2019-05-18T00:21:04.742Z,99.90
2019-05-18T00:22:09.136Z,99.90
2019-05-18T00:23:14.145Z,99.90
2019-05-18T00:24:18.555Z,99.90
2019-05-18T00:25:23.496Z,99.90
2019-05-18T00:26:28.968Z,99.90
2019-05-18T00:27:34.083Z,99.90
2019-05-18T00:28:38.484Z,99.90
2019-05-18T00:29:43.519Z,99.90
2019-05-18T00:30:47.977Z,99.90
2019-05-18T00:31:52.877Z,99.90
2019-05-18T00:32:57.277Z,99.90
2019-05-18T00:34:02.272Z,99.90
2019-05-18T00:35:07.557Z,99.90
2019-05-18T00:36:12.675Z,99.90
2019-05-18T00:37:17.051Z,99.90
2019-05-18T00:38:21.943Z,99.90
2019-05-18T00:39:26.362Z,99.90
2019-05-18T00:40:31.282Z,99.90
2019-05-18T00:41:35.590Z,99.90
2019-05-18T00:42:40.496Z,99.90
2019-05-18T00:43:44.880Z,99.90
2019-05-18T00:44:49.805Z,99.90
2019-05-18T00:45:54.215Z,99.90
2019-05-18T00:46:59.144Z,99.90
2019-05-18T00:48:03.597Z,99.90
2019-05-18T00:49:08.552Z,99.90
2019-05-18T00:50:13.749Z,99.90
2019-05-18T00:51:18.673Z,99.90
2019-05-18T00:52:23.052Z,99.90
2019-05-18T00:53:27.941Z,99.90
2019-05-18T00:54:32.374Z,99.90
2019-05-18T00:55:37.354Z,99.90
2019-05-18T00:56:41.730Z,99.90
2019-05-18T00:57:46.624Z,99.90
2019-05-18T00:58:51.109Z,99.90
2019-05-18T00:59:56.014Z,99.90
2019-05-18T01:01:00.336Z,99.90
2019-05-18T01:02:08.619Z,99.90
2019-05-18T01:03:13.174Z,99.90
2019-05-18T01:04:18.057Z,99.90
2019-05-18T01:05:22.466Z,99.90
2019-05-18T01:06:27.424Z,99.90
2019-05-18T01:07:33.562Z,99.90
2019-05-18T01:08:38.605Z,99.90
2019-05-18T01:09:43.072Z,99.90
2019-05-18T01:10:48.019Z,99.90
2019-05-18T01:11:52.347Z,99.90
2019-05-18T01:12:58.549Z,99.90
2019-05-18T01:14:03.419Z,99.90
2019-05-18T01:15:10.704Z,99.90
2019-05-18T01:16:15.173Z,99.90
2019-05-18T01:17:20.422Z,99.90
2019-05-18T01:18:26.576Z,99.90
2019-05-18T01:19:32.438Z,99.90
2019-05-18T01:20:36.819Z,99.90
2019-05-18T01:21:41.757Z,99.90
2019-05-18T01:22:46.086Z,99.90
2019-05-18T01:23:50.987Z,99.90
2019-05-18T01:24:55.286Z,99.90
2019-05-18T01:26:00.420Z,99.90
2019-05-18T01:27:07.798Z,99.90
2019-05-18T01:28:12.821Z,99.90
2019-05-18T01:29:17.272Z,99.90
2019-05-18T01:30:23.090Z,99.90
2019-05-18T01:31:27.412Z,99.90
2019-05-18T01:32:32.692Z,99.90
2019-05-18T01:33:37.516Z,99.90
2019-05-18T01:34:42.520Z,99.90
2019-05-18T01:35:47.133Z,99.90
2019-05-18T01:36:53.393Z,99.90
2019-05-18T01:37:57.833Z,99.90
2019-05-18T01:39:02.746Z,99.90
2019-05-18T01:40:07.985Z,99.90
2019-05-18T01:41:13.056Z,99.90
2019-05-18T01:42:17.447Z,99.90
2019-05-18T01:43:22.804Z,99.90
2019-05-18T01:44:27.552Z,99.90
2019-05-18T01:45:32.441Z,99.90
2019-05-18T01:46:36.845Z,99.90
2019-05-18T01:47:41.853Z,99.90
2019-05-18T01:48:46.257Z,99.90
2019-05-18T01:49:53.805Z,99.90
2019-05-18T01:50:58.171Z,99.90
2019-05-18T01:52:03.221Z,99.90
2019-05-18T01:53:07.776Z,99.90
2019-05-18T01:54:12.781Z,99.90
2019-05-18T01:55:17.137Z,99.90
2019-05-18T01:56:22.019Z,99.90
2019-05-18T01:57:26.397Z,99.90
2019-05-18T01:58:31.292Z,99.90
2019-05-18T01:59:35.697Z,99.90
2019-05-18T02:00:40.561Z,99.90
2019-05-18T02:01:44.964Z,99.90
2019-05-18T02:02:49.851Z,99.90
2019-05-18T02:03:55.675Z,99.90
2019-05-18T02:05:00.564Z,99.90
2019-05-18T02:06:05.488Z,99.90
2019-05-18T02:07:10.700Z,99.90
2019-05-18T02:08:15.056Z,99.90
2019-05-18T02:09:20.118Z,99.90
2019-05-18T02:10:24.534Z,99.90
2019-05-18T02:11:29.623Z,99.90
2019-05-18T02:12:34.205Z,99.90
2019-05-18T02:13:39.053Z,99.90
2019-05-18T02:14:43.384Z,99.90
2019-05-18T02:15:48.236Z,99.90
2019-05-18T02:16:52.603Z,99.90
2019-05-18T02:17:58.647Z,99.90
2019-05-18T02:19:03.190Z,99.90
2019-05-18T02:20:08.953Z,99.90
2019-05-18T02:21:13.487Z,99.90
2019-05-18T02:22:18.437Z,99.90
2019-05-18T02:23:22.757Z,99.90
2019-05-18T02:24:28.108Z,99.90
2019-05-18T02:25:32.501Z,99.90
2019-05-18T02:26:37.422Z,99.90
2019-05-18T02:27:41.897Z,99.90
2019-05-18T02:28:46.736Z,99.90
2019-05-18T02:29:51.313Z,99.90
2019-05-18T02:30:56.219Z,99.90
2019-05-18T02:32:00.524Z,99.90
2019-05-18T02:33:06.615Z,99.90
2019-05-18T02:34:11.120Z,99.90
2019-05-18T02:35:16.094Z,99.90
2019-05-18T02:36:21.794Z,99.90
2019-05-18T02:37:26.956Z,99.90
2019-05-18T02:38:32.877Z,99.90
2019-05-18T02:39:37.916Z,99.90
2019-05-18T02:40:42.433Z,99.90
2019-05-18T02:41:47.385Z,99.90
2019-05-18T02:42:52.016Z,99.90
2019-05-18T02:43:56.929Z,99.90
2019-05-18T02:45:01.570Z,99.90
2019-05-18T02:46:06.740Z,99.90
2019-05-18T02:47:12.474Z,99.90
2019-05-18T02:48:17.553Z,99.90
2019-05-18T02:49:21.926Z,99.90
2019-05-18T02:50:27.089Z,99.90
2019-05-18T02:51:31.434Z,99.90
2019-05-18T02:52:36.407Z,99.90
2019-05-18T02:53:40.940Z,99.90
2019-05-18T02:54:45.852Z,99.90
2019-05-18T02:55:50.244Z,99.90
2019-05-18T02:56:55.233Z,99.90
2019-05-18T02:57:59.550Z,99.90
2019-05-18T02:59:04.799Z,99.90
2019-05-18T03:00:09.872Z,99.90
2019-05-18T03:01:15.240Z,99.90
2019-05-18T03:02:19.590Z,99.90
2019-05-18T03:03:24.799Z,99.90
2019-05-18T03:04:29.362Z,99.90
2019-05-18T03:05:34.510Z,99.90
2019-05-18T03:06:40.793Z,99.90
2019-05-18T03:07:45.747Z,99.90
2019-05-18T03:08:50.550Z,99.90
2019-05-18T03:09:55.442Z,99.90
2019-05-18T03:10:59.891Z,99.90
2019-05-18T03:12:05.212Z,99.90
2019-05-18T03:13:09.587Z,99.90
2019-05-18T03:14:14.994Z,99.90
2019-05-18T03:15:19.345Z,99.90
2019-05-18T03:16:24.314Z,99.90
2019-05-18T03:17:28.727Z,99.90
2019-05-18T03:18:34.608Z,99.90
2019-05-18T03:19:40.321Z,99.90
2019-05-18T03:20:45.275Z,99.90
2019-05-18T03:21:49.961Z,99.90
2019-05-18T03:22:54.912Z,99.90
2019-05-18T03:23:59.429Z,99.90
2019-05-18T03:25:04.346Z,99.90
2019-05-18T03:26:08.749Z,99.90
2019-05-18T03:27:14.372Z,99.90
2019-05-18T03:28:18.692Z,99.90
2019-05-18T03:29:23.544Z,99.90
2019-05-18T03:30:28.132Z,99.90
2019-05-18T03:31:33.222Z,99.90
2019-05-18T03:32:37.620Z,99.90
2019-05-18T03:33:42.604Z,99.90
2019-05-18T03:34:46.993Z,99.90
2019-05-18T03:35:51.914Z,99.90
2019-05-18T03:36:57.702Z,99.90
2019-05-18T03:38:02.623Z,99.90
2019-05-18T03:39:07.473Z,99.90
2019-05-18T03:40:13.538Z,99.90
2019-05-18T03:41:17.951Z,99.90
2019-05-18T03:42:22.916Z,99.90
2019-05-18T03:43:27.353Z,99.90
2019-05-18T03:44:34.104Z,99.90
2019-05-18T03:45:38.794Z,99.90
2019-05-18T03:46:43.774Z,99.90
2019-05-18T03:47:48.169Z,99.90
2019-05-18T03:48:53.201Z,99.90
2019-05-18T03:49:57.522Z,99.90
2019-05-18T03:51:02.609Z,99.90
2019-05-18T03:52:07.106Z,99.90
2019-05-18T03:53:12.657Z,99.90
2019-05-18T03:54:17.036Z,99.90
2019-05-18T03:55:22.053Z,99.90
2019-05-18T03:56:26.423Z,99.90
2019-05-18T03:57:32.983Z,99.90
2019-05-18T03:58:37.394Z,99.90
2019-05-18T03:59:42.273Z,99.90
2019-05-18T04:00:47.629Z,99.90
2019-05-18T04:01:52.553Z,99.90
2019-05-18T04:02:56.873Z,99.90
2019-05-18T04:04:01.803Z,99.90
2019-05-18T04:05:07.803Z,99.90
2019-05-18T04:06:15.520Z,99.90
2019-05-18T04:07:19.869Z,99.90
2019-05-18T04:08:24.805Z,99.90
2019-05-18T04:09:29.228Z,99.90
2019-05-18T04:10:35.274Z,99.90
2019-05-18T04:11:39.588Z,99.90
2019-05-18T04:12:45.538Z,99.90
2019-05-18T04:13:49.909Z,99.90
2019-05-18T04:14:54.801Z,99.90
2019-05-18T04:15:59.119Z,99.90
2019-05-18T04:17:03.982Z,99.90
2019-05-18T04:18:08.401Z,99.90
2019-05-18T04:19:13.837Z,99.90
2019-05-18T04:20:18.394Z,99.90
2019-05-18T04:21:23.267Z,99.90
2019-05-18T04:22:27.725Z,99.90
2019-05-18T04:23:32.731Z,99.90
2019-05-18T04:24:37.070Z,99.90
2019-05-18T04:25:43.865Z,99.90
2019-05-18T04:26:51.501Z,99.90
2019-05-18T04:27:56.459Z,99.90
2019-05-18T04:29:01.325Z,99.90
2019-05-18T04:30:07.023Z,99.90
2019-05-18T04:31:11.761Z,99.30
2019-05-18T04:32:17.768Z,97.60
2019-05-18T04:33:22.215Z,97.40
2019-05-18T04:34:27.175Z,95.40
2019-05-18T04:35:31.560Z,94.40
2019-05-18T04:36:37.712Z,92.80
2019-05-18T04:37:42.050Z,92.50
2019-05-18T04:38:46.984Z,89.40
2019-05-18T04:39:51.784Z,90.60
2019-05-18T04:40:56.741Z,88.70
2019-05-18T04:42:01.052Z,88.60
2019-05-18T04:43:06.058Z,85.50
2019-05-18T04:44:11.272Z,85.30
2019-05-18T04:45:16.592Z,85.00
2019-05-18T04:46:21.160Z,82.50
2019-05-18T04:47:26.074Z,79.30
2019-05-18T04:48:30.967Z,78.80
2019-05-18T04:49:35.893Z,78.50
2019-05-18T04:50:40.237Z,79.70
2019-05-18T04:51:45.392Z,76.70
2019-05-18T04:52:49.796Z,75.00
2019-05-18T04:53:54.945Z,75.80
2019-05-18T04:54:59.403Z,73.90
2019-05-18T04:56:04.292Z,73.40
2019-05-18T04:57:08.840Z,71.80
2019-05-18T04:58:14.660Z,69.30
2019-05-18T04:59:18.995Z,68.00
2019-05-18T05:00:24.150Z,67.10
2019-05-18T05:01:28.736Z,68.30
2019-05-18T05:02:33.738Z,65.90
2019-05-18T05:03:38.597Z,62.80
2019-05-18T05:04:43.522Z,61.70
2019-05-18T05:05:52.856Z,62.90
2019-05-18T05:06:57.808Z,61.20
2019-05-18T05:08:02.166Z,60.10
2019-05-18T05:09:09.080Z,60.80
2019-05-18T05:10:14.341Z,60.20
2019-05-18T05:11:19.234Z,59.80
2019-05-18T05:12:23.572Z,59.50
2019-05-18T05:13:28.821Z,59.90
2019-05-18T05:14:34.459Z,59.90
2019-05-18T05:15:39.717Z,59.50
2019-05-18T05:16:44.093Z,59.10
2019-05-18T05:17:48.966Z,59.20
2019-05-18T05:19:12.679Z,60.30
2019-05-18T05:20:20.143Z,61.50
2019-05-18T05:21:23.825Z,62.30
2019-05-18T05:22:28.888Z,61.30
2019-05-18T05:23:33.253Z,61.30
2019-05-18T05:24:38.323Z,61.00
2019-05-18T05:25:42.777Z,60.40
2019-05-18T05:26:47.762Z,60.00
2019-05-18T05:27:52.355Z,59.20
2019-05-18T05:28:57.364Z,58.80
2019-05-18T05:30:01.713Z,58.30
2019-05-18T05:31:06.612Z,57.70
2019-05-18T05:32:11.340Z,57.80
2019-05-18T05:33:16.434Z,58.10
2019-05-18T05:34:20.947Z,58.40
2019-05-18T05:35:25.883Z,58.00
2019-05-18T05:36:30.794Z,57.90
2019-05-18T05:37:35.742Z,58.00
2019-05-18T05:38:40.165Z,57.50
2019-05-18T05:39:45.075Z,58.30
2019-05-18T05:40:49.568Z,57.90
2019-05-18T05:41:54.745Z,56.30
2019-05-18T05:43:00.463Z,55.20
2019-05-18T05:44:05.629Z,54.50
2019-05-18T05:45:10.254Z,53.70
2019-05-18T05:46:15.464Z,53.30
2019-05-18T05:47:19.969Z,52.30
2019-05-18T05:48:24.927Z,51.80
2019-05-18T05:49:29.378Z,51.60
2019-05-18T05:50:36.375Z,51.00
2019-05-18T05:51:40.603Z,49.80
2019-05-18T05:52:45.539Z,49.60
2019-05-18T05:53:50.011Z,49.20
2019-05-18T05:54:54.917Z,49.10
2019-05-18T05:56:00.739Z,48.20
2019-05-18T05:57:06.201Z,49.10
2019-05-18T05:58:11.021Z,48.80
2019-05-18T05:59:16.188Z,48.90
2019-05-18T06:00:22.072Z,48.30
2019-05-18T06:01:27.341Z,47.50
2019-05-18T06:02:31.839Z,46.20
2019-05-18T06:03:36.822Z,45.60
2019-05-18T06:04:41.393Z,44.50
2019-05-18T06:05:46.410Z,43.30
2019-05-18T06:06:50.854Z,42.60
2019-05-18T06:07:55.735Z,42.50
2019-05-18T06:09:00.147Z,42.10
2019-05-18T06:10:05.386Z,42.30
2019-05-18T06:11:10.158Z,41.00
2019-05-18T06:12:15.545Z,41.00
2019-05-18T06:13:19.901Z,41.20
2019-05-18T06:14:24.926Z,41.00
2019-05-18T06:15:29.316Z,40.20
2019-05-18T06:16:34.816Z,40.20
2019-05-18T06:17:39.335Z,39.10
2019-05-18T06:18:44.487Z,38.70
2019-05-18T06:19:48.921Z,38.70
2019-05-18T06:20:53.955Z,37.30
2019-05-18T06:21:58.448Z,37.10
2019-05-18T06:23:03.400Z,36.40
2019-05-18T06:24:07.812Z,35.60
2019-05-18T06:25:13.555Z,34.90
2019-05-18T06:26:18.004Z,34.50
2019-05-18T06:27:22.916Z,34.20
2019-05-18T06:28:27.559Z,33.30
2019-05-18T06:29:32.642Z,33.70
2019-05-18T06:30:37.032Z,33.30
2019-05-18T06:31:42.061Z,32.90
2019-05-18T06:32:46.817Z,32.80
2019-05-18T06:33:51.754Z,32.20
2019-05-18T06:34:56.130Z,32.70
2019-05-18T06:36:01.067Z,32.80
2019-05-18T06:37:05.424Z,32.50
2019-05-18T06:38:10.718Z,32.00
2019-05-18T06:39:15.384Z,31.70
2019-05-18T06:40:20.258Z,31.30
2019-05-18T06:41:24.753Z,30.50
2019-05-18T06:42:29.672Z,30.60
2019-05-18T06:43:34.139Z,29.90
2019-05-18T06:44:39.082Z,30.20
2019-05-18T06:45:43.548Z,30.00
2019-05-18T06:46:49.026Z,30.00
2019-05-18T06:47:54.505Z,30.00
2019-05-18T06:48:59.512Z,30.00
2019-05-18T06:50:04.383Z,29.70
2019-05-18T06:51:09.501Z,29.50
2019-05-18T06:52:16.777Z,29.70
2019-05-18T06:53:23.454Z,29.70
2019-05-18T06:54:28.316Z,30.70
2019-05-18T06:55:34.428Z,29.60
2019-05-18T06:56:39.490Z,29.30
2019-05-18T06:57:45.164Z,28.60
2019-05-18T06:58:50.405Z,28.20
2019-05-18T06:59:55.886Z,28.20
2019-05-18T07:01:00.590Z,28.40
2019-05-18T07:02:08.522Z,28.60
2019-05-18T07:03:13.590Z,28.50
2019-05-18T07:04:18.672Z,28.80
2019-05-18T07:05:23.365Z,28.80
2019-05-18T07:06:28.281Z,29.20
2019-05-18T07:07:32.753Z,28.70
2019-05-18T07:08:37.750Z,28.90
2019-05-18T07:09:42.318Z,29.00
2019-05-18T07:10:47.349Z,29.10
2019-05-18T07:11:51.839Z,29.00
2019-05-18T07:12:56.843Z,29.00
2019-05-18T07:14:01.272Z,28.90
2019-05-18T07:15:07.113Z,29.10
2019-05-18T07:16:14.046Z,29.20
2019-05-18T07:17:20.294Z,29.40
2019-05-18T07:18:28.582Z,30.30
2019-05-18T07:19:35.594Z,29.50
2019-05-18T07:20:40.026Z,29.30
2019-05-18T07:21:46.526Z,30.30
2019-05-18T07:22:51.062Z,29.50
2019-05-18T07:23:56.273Z,29.00
2019-05-18T07:25:00.624Z,28.90
2019-05-18T07:26:05.922Z,28.70
2019-05-18T07:27:12.786Z,28.70
2019-05-18T07:28:17.901Z,28.40
2019-05-18T07:29:22.282Z,28.60
2019-05-18T07:30:27.952Z,28.80
2019-05-18T07:31:32.639Z,29.00
2019-05-18T07:32:37.549Z,29.10
2019-05-18T07:33:42.175Z,29.20
2019-05-18T07:34:47.339Z,29.50
2019-05-18T07:35:51.826Z,29.50
2019-05-18T07:36:56.859Z,29.50
2019-05-18T07:38:01.349Z,30.40
2019-05-18T07:39:07.432Z,29.60
2019-05-18T07:40:12.587Z,30.00
2019-05-18T07:41:17.326Z,29.60
2019-05-18T07:42:21.692Z,29.70
2019-05-18T07:43:26.964Z,29.40
2019-05-18T07:44:31.652Z,29.30
2019-05-18T07:45:36.658Z,29.30
2019-05-18T07:46:41.056Z,28.60
2019-05-18T07:47:47.107Z,28.40
2019-05-18T07:48:51.479Z,27.90
2019-05-18T07:49:56.855Z,28.00
2019-05-18T07:51:01.246Z,27.70
2019-05-18T07:52:06.249Z,27.10
2019-05-18T07:53:10.809Z,27.20
2019-05-18T07:54:17.221Z,27.40
2019-05-18T07:55:26.411Z,27.70
2019-05-18T07:56:31.338Z,27.60
2019-05-18T07:57:35.749Z,27.90
2019-05-18T07:58:40.687Z,28.00
2019-05-18T07:59:45.110Z,27.90
2019-05-18T08:00:50.202Z,27.90
2019-05-18T08:01:57.198Z,28.10
2019-05-18T08:03:02.639Z,28.00
2019-05-18T08:04:07.337Z,27.90
2019-05-18T08:05:12.716Z,27.90
2019-05-18T08:06:17.228Z,28.80
2019-05-18T08:07:22.277Z,29.00
2019-05-18T08:08:26.721Z,28.80
2019-05-18T08:09:31.646Z,29.00
2019-05-18T08:10:38.245Z,28.70
2019-05-18T08:11:43.269Z,29.10
2019-05-18T08:12:47.678Z,29.50
2019-05-18T08:13:52.745Z,30.10
2019-05-18T08:14:57.183Z,30.50
2019-05-18T08:16:02.232Z,31.00
2019-05-18T08:17:08.084Z,30.80
2019-05-18T08:18:13.599Z,30.60
2019-05-18T08:19:18.056Z,31.40
2019-05-18T08:20:23.194Z,31.70
2019-05-18T08:21:29.441Z,31.90
2019-05-18T08:22:35.864Z,32.30
2019-05-18T08:23:40.282Z,32.50
2019-05-18T08:24:45.202Z,33.00
2019-05-18T08:25:49.607Z,34.00
2019-05-18T08:26:56.411Z,34.80
2019-05-18T08:28:00.804Z,36.10
2019-05-18T08:29:05.729Z,36.90
2019-05-18T08:30:11.822Z,37.40
2019-05-18T08:31:16.887Z,36.80
2019-05-18T08:32:21.330Z,37.20
2019-05-18T08:33:26.232Z,37.40
2019-05-18T08:34:30.640Z,36.30
2019-05-18T08:35:35.998Z,36.30
2019-05-18T08:36:40.450Z,36.00
2019-05-18T08:37:45.395Z,35.50
2019-05-18T08:38:50.040Z,35.30
2019-05-18T08:39:55.324Z,32.70
2019-05-18T08:40:59.881Z,32.20
2019-05-18T08:42:04.899Z,32.40
2019-05-18T08:43:09.392Z,32.60
2019-05-18T08:44:14.845Z,32.70
2019-05-18T08:45:19.487Z,32.40
2019-05-18T08:46:24.538Z,32.50
2019-05-18T08:47:28.957Z,32.20
2019-05-18T08:48:33.861Z,31.30
2019-05-18T08:49:38.415Z,31.20
2019-05-18T08:50:43.917Z,30.90
2019-05-18T08:51:49.469Z,30.30
2019-05-18T08:52:55.803Z,30.10
2019-05-18T08:54:01.957Z,29.90
2019-05-18T08:55:07.043Z,29.80
2019-05-18T08:56:11.798Z,29.20
2019-05-18T08:57:17.736Z,29.00
2019-05-18T08:58:22.182Z,29.00
2019-05-18T08:59:27.160Z,29.10
2019-05-18T09:00:34.147Z,29.60
2019-05-18T09:01:39.186Z,30.60
2019-05-18T09:02:43.601Z,31.50
2019-05-18T09:03:48.680Z,31.50
2019-05-18T09:04:53.218Z,31.90
2019-05-18T09:05:58.318Z,31.80
2019-05-18T09:07:02.783Z,31.90
2019-05-18T09:08:07.772Z,31.00
2019-05-18T09:09:14.327Z,31.70
2019-05-18T09:10:20.117Z,31.90
2019-05-18T09:11:24.479Z,32.40
2019-05-18T09:12:29.403Z,33.00
2019-05-18T09:13:33.825Z,33.50
2019-05-18T09:14:38.810Z,33.30
2019-05-18T09:15:43.453Z,33.20
2019-05-18T09:16:48.468Z,33.30
2019-05-18T09:17:54.651Z,32.50
2019-05-18T09:18:59.632Z,32.40
2019-05-18T09:20:04.283Z,30.00
2019-05-18T09:21:09.446Z,30.60
2019-05-18T09:22:22.753Z,30.60
2019-05-18T09:23:22.115Z,31.00
2019-05-18T09:24:26.487Z,30.30
2019-05-18T09:25:32.432Z,29.80
2019-05-18T09:26:36.937Z,30.00
2019-05-18T09:27:41.858Z,30.20
2019-05-18T09:28:46.341Z,30.20
2019-05-18T09:29:51.353Z,29.90
2019-05-18T09:30:55.730Z,31.20
2019-05-18T09:32:00.946Z,28.70
2019-05-18T09:33:05.421Z,29.90
2019-05-18T09:34:10.450Z,30.00
2019-05-18T09:35:15.773Z,31.20
2019-05-18T09:36:20.983Z,32.20
2019-05-18T09:37:25.445Z,33.30
2019-05-18T09:38:33.183Z,33.10
2019-05-18T09:39:36.629Z,32.20
2019-05-18T09:40:41.553Z,32.30
2019-05-18T09:41:46.047Z,33.00
2019-05-18T09:42:52.131Z,32.70
2019-05-18T09:43:57.713Z,33.40
2019-05-18T09:45:02.722Z,34.20
2019-05-18T09:46:07.293Z,35.10
2019-05-18T09:47:12.667Z,35.80
2019-05-18T09:48:17.104Z,36.70
2019-05-18T09:49:22.077Z,36.80
2019-05-18T09:50:26.422Z,36.50
2019-05-18T09:51:31.397Z,36.20
2019-05-18T09:52:44.841Z,36.70
2019-05-18T09:53:51.199Z,37.50
2019-05-18T09:54:48.903Z,37.80
2019-05-18T09:55:53.910Z,38.00
2019-05-18T09:56:59.760Z,37.20
2019-05-18T09:58:04.767Z,38.30
2019-05-18T09:59:09.113Z,39.40
2019-05-18T10:00:15.640Z,40.00
2019-05-18T10:01:20.128Z,40.50
2019-05-18T10:02:25.241Z,40.90
2019-05-18T10:03:29.902Z,41.70
2019-05-18T10:04:34.830Z,42.70
2019-05-18T10:05:39.184Z,42.50
2019-05-18T10:06:44.155Z,42.40
2019-05-18T10:07:48.637Z,43.20
2019-05-18T10:08:55.082Z,42.50
2019-05-18T10:09:59.641Z,42.50
2019-05-18T10:11:04.569Z,42.40
2019-05-18T10:12:08.966Z,42.70
2019-05-18T10:13:14.339Z,42.80
2019-05-18T10:14:18.844Z,42.60
2019-05-18T10:15:23.790Z,42.20
2019-05-18T10:16:28.345Z,41.90
2019-05-18T10:17:33.378Z,41.30
2019-05-18T10:18:37.786Z,40.60
2019-05-18T10:19:42.717Z,40.90
2019-05-18T10:20:47.308Z,40.50
2019-05-18T10:21:52.205Z,40.10
2019-05-18T10:23:11.803Z,40.10
2019-05-18T10:24:03.492Z,40.00
2019-05-18T10:25:08.999Z,39.80
2019-05-18T10:26:14.486Z,40.90
2019-05-18T10:27:18.968Z,41.20
2019-05-18T10:28:24.014Z,41.30
2019-05-18T10:29:28.506Z,41.40
2019-05-18T10:30:33.479Z,41.40
2019-05-18T10:31:37.967Z,41.70
2019-05-18T10:32:42.923Z,41.50
2019-05-18T10:33:47.357Z,41.10
2019-05-18T10:34:52.619Z,41.20
2019-05-18T10:35:57.100Z,40.20
2019-05-18T10:37:02.114Z,41.10
2019-05-18T10:38:06.479Z,42.60
2019-05-18T10:39:11.566Z,42.60
2019-05-18T10:40:17.598Z,43.00
2019-05-18T10:41:22.795Z,43.50
2019-05-18T10:42:27.244Z,43.00
2019-05-18T10:43:33.258Z,43.30
2019-05-18T10:44:37.832Z,43.40
2019-05-18T10:45:45.064Z,42.90
2019-05-18T10:46:48.912Z,41.80
2019-05-18T10:47:53.916Z,41.00
2019-05-18T10:48:58.303Z,40.30
2019-05-18T10:50:03.301Z,40.00
2019-05-18T10:51:07.648Z,40.00
2019-05-18T10:52:13.224Z,40.00
2019-05-18T10:53:28.397Z,40.10
2019-05-18T10:54:24.252Z,40.30
2019-05-18T10:55:28.686Z,40.70
2019-05-18T10:56:33.607Z,40.70
2019-05-18T10:57:38.119Z,40.80
2019-05-18T10:58:43.199Z,41.10
2019-05-18T10:59:47.873Z,42.00
2019-05-18T11:00:52.854Z,40.70
2019-05-18T11:01:57.241Z,40.50
2019-05-18T11:03:02.224Z,40.30
2019-05-18T11:04:06.703Z,38.40
2019-05-18T11:05:15.051Z,38.70
2019-05-18T11:06:19.441Z,36.50
2019-05-18T11:07:28.852Z,36.80
2019-05-18T11:08:33.239Z,36.80
2019-05-18T11:09:38.253Z,37.70
2019-05-18T11:10:42.615Z,39.20
2019-05-18T11:11:47.694Z,39.60
2019-05-18T11:12:52.269Z,39.60
2019-05-18T11:13:57.378Z,39.00
2019-05-18T11:15:02.008Z,38.60
2019-05-18T11:16:07.062Z,38.90
2019-05-18T11:17:11.789Z,39.70
2019-05-18T11:18:16.928Z,40.40
2019-05-18T11:19:21.379Z,41.20
2019-05-18T11:20:26.306Z,40.90
2019-05-18T11:21:30.733Z,40.90
2019-05-18T11:22:35.695Z,40.70
2019-05-18T11:23:59.523Z,39.00
2019-05-18T11:25:04.461Z,38.90
2019-05-18T11:26:10.728Z,39.60
2019-05-18T11:27:16.038Z,39.10
2019-05-18T11:28:20.381Z,38.90
2019-05-18T11:29:25.342Z,38.80
2019-05-18T11:30:30.202Z,39.10
2019-05-18T11:31:35.107Z,39.70
2019-05-18T11:32:39.533Z,39.70
2019-05-18T11:33:44.469Z,40.40
2019-05-18T11:34:48.880Z,41.10
2019-05-18T11:35:55.775Z,40.80
2019-05-18T11:37:03.102Z,41.50
2019-05-18T11:38:07.005Z,42.00
2019-05-18T11:39:12.142Z,42.70
2019-05-18T11:40:17.531Z,41.80
2019-05-18T11:41:22.064Z,42.10
2019-05-18T11:42:26.983Z,42.40
2019-05-18T11:43:31.553Z,42.60
2019-05-18T11:44:36.468Z,42.60
2019-05-18T11:45:40.874Z,42.80
2019-05-18T11:46:45.852Z,43.60
2019-05-18T11:47:50.214Z,44.10
2019-05-18T11:48:55.399Z,43.90
2019-05-18T11:50:00.089Z,43.60
2019-05-18T11:51:05.142Z,42.80
2019-05-18T11:52:09.508Z,43.20
2019-05-18T11:53:16.134Z,42.80
2019-05-18T11:54:20.592Z,42.80
2019-05-18T11:55:27.057Z,43.00
2019-05-18T11:56:35.704Z,43.70
2019-05-18T11:57:40.785Z,42.90
2019-05-18T11:58:45.217Z,42.10
2019-05-18T11:59:50.257Z,42.40
2019-05-18T12:00:54.720Z,42.80
2019-05-18T12:02:01.463Z,42.90
2019-05-18T12:03:06.221Z,43.00
2019-05-18T12:04:11.402Z,43.00
2019-05-18T12:05:17.442Z,44.10
2019-05-18T12:06:22.388Z,44.60
2019-05-18T12:07:26.829Z,44.90
2019-05-18T12:08:31.827Z,45.00
2019-05-18T12:09:36.246Z,44.10
2019-05-18T12:10:42.865Z,43.30
2019-05-18T12:11:47.383Z,43.60
2019-05-18T12:12:52.364Z,43.50
2019-05-18T12:14:15.842Z,42.90
2019-05-18T12:15:21.555Z,42.80
2019-05-18T12:16:25.933Z,42.80
2019-05-18T12:17:32.688Z,42.20
2019-05-18T12:18:37.304Z,42.60
2019-05-18T12:19:42.499Z,42.10
2019-05-18T12:20:46.957Z,42.60
2019-05-18T12:21:51.947Z,42.60
2019-05-18T12:22:56.316Z,42.90
2019-05-18T12:24:14.845Z,43.00
2019-05-18T12:25:08.407Z,42.60
2019-05-18T12:26:13.924Z,43.00
2019-05-18T12:27:18.513Z,41.70
2019-05-18T12:28:23.472Z,41.60
2019-05-18T12:29:27.935Z,42.00
2019-05-18T12:30:32.937Z,42.10
2019-05-18T12:31:38.415Z,41.90
2019-05-18T12:32:43.727Z,42.50
2019-05-18T12:33:48.190Z,41.50
2019-05-18T12:34:53.148Z,41.50
2019-05-18T12:35:58.016Z,40.80
2019-05-18T12:37:03.012Z,41.70
2019-05-18T12:38:07.747Z,41.50
2019-05-18T12:39:12.987Z,42.40
2019-05-18T12:40:19.274Z,42.50
2019-05-18T12:41:30.120Z,43.00
2019-05-18T12:42:34.590Z,43.30
2019-05-18T12:43:39.533Z,43.40
2019-05-18T12:44:44.140Z,43.10
2019-05-18T12:45:49.069Z,42.60
2019-05-18T12:46:53.599Z,42.60
2019-05-18T12:47:58.843Z,42.90
2019-05-18T12:49:03.313Z,43.40
2019-05-18T12:50:13.993Z,43.10
2019-05-18T12:51:18.469Z,42.80
2019-05-18T12:52:23.439Z,42.30
2019-05-18T12:53:27.901Z,40.90
2019-05-18T12:54:45.650Z,40.20
2019-05-18T12:55:38.967Z,39.10
2019-05-18T12:56:45.008Z,38.40
2019-05-18T12:57:49.431Z,37.70
2019-05-18T12:58:54.413Z,38.00
2019-05-18T12:59:58.789Z,37.20
2019-05-18T13:01:03.725Z,36.60
2019-05-18T13:02:11.492Z,36.60
2019-05-18T13:03:16.923Z,36.10
2019-05-18T13:04:22.835Z,37.20
2019-05-18T13:05:27.833Z,36.40
2019-05-18T13:06:32.321Z,36.70
2019-05-18T13:07:37.330Z,36.40
2019-05-18T13:08:41.923Z,36.00
2019-05-18T13:09:47.057Z,35.10
2019-05-18T13:10:51.522Z,34.60
2019-05-18T13:11:56.520Z,33.50
2019-05-18T13:14:27.225Z,33.50
2019-05-18T13:15:32.132Z,34.30
2019-05-18T13:16:36.581Z,33.40
2019-05-18T13:17:41.605Z,33.80
2019-05-18T13:18:46.050Z,34.20
2019-05-18T13:19:51.076Z,35.70
2019-05-18T13:20:55.524Z,35.40
2019-05-18T13:22:00.543Z,35.40
2019-05-18T13:23:05.020Z,36.10
2019-05-18T13:24:10.012Z,36.80
2019-05-18T13:25:15.328Z,36.70
2019-05-18T13:26:20.424Z,37.60
2019-05-18T13:27:38.280Z,37.60
2019-05-18T13:28:31.539Z,38.40
2019-05-18T13:29:36.792Z,38.00
2019-05-18T13:30:41.864Z,38.20
2019-05-18T13:31:46.351Z,38.60
2019-05-18T13:32:52.399Z,38.70
2019-05-18T13:33:56.872Z,39.00
2019-05-18T13:35:02.262Z,38.90
2019-05-18T13:36:07.175Z,39.00
2019-05-18T13:37:12.592Z,39.50
2019-05-18T13:39:28.988Z,39.80
2019-05-18T13:40:33.576Z,40.20
2019-05-18T13:41:39.870Z,40.40
2019-05-18T13:42:44.303Z,40.90
2019-05-18T13:43:49.225Z,40.90
2019-05-18T13:44:53.789Z,41.30
2019-05-18T13:45:58.754Z,41.10
2019-05-18T13:47:03.224Z,41.10
2019-05-18T13:48:08.240Z,41.30
2019-05-18T13:49:13.233Z,41.10
2019-05-18T13:50:18.929Z,40.90
2019-05-18T13:51:23.281Z,40.70
2019-05-18T13:52:28.267Z,40.40
2019-05-18T13:53:32.828Z,40.50
2019-05-18T13:54:37.960Z,41.10
2019-05-18T13:55:42.500Z,40.40
2019-05-18T13:56:47.605Z,40.60
2019-05-18T13:57:52.149Z,40.40
2019-05-18T13:58:57.371Z,41.10
2019-05-18T14:00:03.026Z,40.60
2019-05-18T14:01:09.435Z,40.20